sensor_id;sensor_type;location;lat;lon;timestamp;temperature;humidity
23411;DHT22;11878;51.774;7.220;2023-07-31T00:01:28;15.30;99.90
23411;DHT22;11878;51.774;7.220;2023-07-31T00:04:30;15.20;99.90
23411;DHT22;11878;51.774;7.220;2023-07-31T00:07:32;15.30;99.90
23411;DHT22;11878;51.774;7.220;2023-07-31T00:10:34;15.20;99.90
23411;DHT22;11878;51.774;7.220;2023-07-31T00:13:35;15.20;99.90
23411;DHT22;11878;51.774;7.220;2023-07-31T00:16:37;15.20;99.90
23411;DHT22;11878;51.774;7.220;2023-07-31T00:19:40;15.20;99.90
23411;DHT22;11878;51.774;7.220;2023-07-31T00:22:41;15.20;99.90
23411;DHT22;11878;51.774;7.220;2023-07-31T00:25:43;15.10;99.90
23411;DHT22;11878;51.774;7.220;2023-07-31T00:28:45;15.10;99.90
23411;DHT22;11878;51.774;7.220;2023-07-31T00:31:48;15.30;99.90
23411;DHT22;11878;51.774;7.220;2023-07-31T00:34:52;15.10;99.90
23411;DHT22;11878;51.774;7.220;2023-07-31T00:44:49;15.00;99.90
23411;DHT22;11878;51.774;7.220;2023-07-31T00:47:51;15.00;99.90
23411;DHT22;11878;51.774;7.220;2023-07-31T00:50:53;15.00;99.90
23411;DHT22;11878;51.774;7.220;2023-07-31T00:53:55;15.00;99.90
23411;DHT22;11878;51.774;7.220;2023-07-31T00:56:58;15.10;99.90
23411;DHT22;11878;51.774;7.220;2023-07-31T01:00:00;15.00;99.90
23411;DHT22;11878;51.774;7.220;2023-07-31T01:03:02;15.00;99.90
23411;DHT22;11878;51.774;7.220;2023-07-31T01:09:52;15.00;99.90
23411;DHT22;11878;51.774;7.220;2023-07-31T01:13:00;15.00;99.90
23411;DHT22;11878;51.774;7.220;2023-07-31T01:16:03;15.10;99.90
23411;DHT22;11878;51.774;7.220;2023-07-31T01:19:06;15.20;99.90
23411;DHT22;11878;51.774;7.220;2023-07-31T01:28:50;15.40;99.90
23411;DHT22;11878;51.774;7.220;2023-07-31T01:31:56;15.40;99.90
23411;DHT22;11878;51.774;7.220;2023-07-31T01:35:01;15.20;99.90
23411;DHT22;11878;51.774;7.220;2023-07-31T01:38:04;15.60;99.90
23411;DHT22;11878;51.774;7.220;2023-07-31T01:41:06;15.60;99.90
23411;DHT22;11878;51.774;7.220;2023-07-31T01:44:08;15.60;99.90
23411;DHT22;11878;51.774;7.220;2023-07-31T01:47:10;15.70;99.90
23411;DHT22;11878;51.774;7.220;2023-07-31T01:50:12;15.70;99.90
23411;DHT22;11878;51.774;7.220;2023-07-31T01:53:13;15.70;99.90
23411;DHT22;11878;51.774;7.220;2023-07-31T01:56:16;15.70;99.90
23411;DHT22;11878;51.774;7.220;2023-07-31T01:59:17;15.70;99.90
23411;DHT22;11878;51.774;7.220;2023-07-31T02:02:19;15.70;99.90
23411;DHT22;11878;51.774;7.220;2023-07-31T02:05:21;15.70;99.90
23411;DHT22;11878;51.774;7.220;2023-07-31T02:08:23;15.80;99.90
23411;DHT22;11878;51.774;7.220;2023-07-31T02:11:25;15.80;99.90
23411;DHT22;11878;51.774;7.220;2023-07-31T02:14:27;15.70;99.90
23411;DHT22;11878;51.774;7.220;2023-07-31T02:17:29;15.70;99.90
23411;DHT22;11878;51.774;7.220;2023-07-31T02:20:34;15.70;99.90
23411;DHT22;11878;51.774;7.220;2023-07-31T02:23:37;15.70;99.90
23411;DHT22;11878;51.774;7.220;2023-07-31T02:26:39;15.70;99.90
23411;DHT22;11878;51.774;7.220;2023-07-31T02:29:48;15.70;99.90
23411;DHT22;11878;51.774;7.220;2023-07-31T02:32:51;15.70;99.90
23411;DHT22;11878;51.774;7.220;2023-07-31T02:35:56;15.80;99.90
23411;DHT22;11878;51.774;7.220;2023-07-31T02:38:58;15.70;99.90
23411;DHT22;11878;51.774;7.220;2023-07-31T02:42:01;15.70;99.90
23411;DHT22;11878;51.774;7.220;2023-07-31T02:45:11;15.70;99.90
23411;DHT22;11878;51.774;7.220;2023-07-31T02:48:14;15.70;99.90
23411;DHT22;11878;51.774;7.220;2023-07-31T02:51:25;15.60;99.90
23411;DHT22;11878;51.774;7.220;2023-07-31T02:54:27;15.70;99.90
23411;DHT22;11878;51.774;7.220;2023-07-31T02:57:33;15.70;99.90
23411;DHT22;11878;51.774;7.220;2023-07-31T03:00:45;16.10;99.90
23411;DHT22;11878;51.774;7.220;2023-07-31T03:03:47;15.80;99.90
23411;DHT22;11878;51.774;7.220;2023-07-31T03:06:53;15.90;99.90
23411;DHT22;11878;51.774;7.220;2023-07-31T03:09:56;16.10;99.90
23411;DHT22;11878;51.774;7.220;2023-07-31T03:12:58;15.60;99.90
23411;DHT22;11878;51.774;7.220;2023-07-31T03:16:00;16.00;99.90
23411;DHT22;11878;51.774;7.220;2023-07-31T03:19:03;15.90;99.90
23411;DHT22;11878;51.774;7.220;2023-07-31T03:22:05;15.60;99.90
23411;DHT22;11878;51.774;7.220;2023-07-31T03:25:08;15.60;99.90
23411;DHT22;11878;51.774;7.220;2023-07-31T03:28:24;15.60;99.90
23411;DHT22;11878;51.774;7.220;2023-07-31T03:31:26;15.70;99.90
23411;DHT22;11878;51.774;7.220;2023-07-31T03:34:29;15.70;99.90
23411;DHT22;11878;51.774;7.220;2023-07-31T03:37:31;15.60;99.90
23411;DHT22;11878;51.774;7.220;2023-07-31T03:40:36;15.60;99.90
23411;DHT22;11878;51.774;7.220;2023-07-31T03:43:38;15.60;99.90
23411;DHT22;11878;51.774;7.220;2023-07-31T03:46:41;15.60;99.90
23411;DHT22;11878;51.774;7.220;2023-07-31T03:49:43;15.60;99.90
23411;DHT22;11878;51.774;7.220;2023-07-31T03:52:45;15.60;99.90
23411;DHT22;11878;51.774;7.220;2023-07-31T03:55:47;16.10;99.90
23411;DHT22;11878;51.774;7.220;2023-07-31T03:58:49;15.60;99.90
23411;DHT22;11878;51.774;7.220;2023-07-31T04:01:51;15.60;99.90
23411;DHT22;11878;51.774;7.220;2023-07-31T04:04:53;15.60;99.90
23411;DHT22;11878;51.774;7.220;2023-07-31T04:07:55;15.80;99.90
23411;DHT22;11878;51.774;7.220;2023-07-31T04:10:57;15.90;99.90
23411;DHT22;11878;51.774;7.220;2023-07-31T04:13:59;15.80;99.90
23411;DHT22;11878;51.774;7.220;2023-07-31T04:17:03;16.20;99.90
23411;DHT22;11878;51.774;7.220;2023-07-31T04:20:12;15.60;99.90
23411;DHT22;11878;51.774;7.220;2023-07-31T04:23:14;15.60;99.90
23411;DHT22;11878;51.774;7.220;2023-07-31T04:26:16;15.70;99.90
23411;DHT22;11878;51.774;7.220;2023-07-31T04:29:19;15.80;99.90
23411;DHT22;11878;51.774;7.220;2023-07-31T04:32:22;15.70;99.90
23411;DHT22;11878;51.774;7.220;2023-07-31T04:35:24;15.70;99.90
23411;DHT22;11878;51.774;7.220;2023-07-31T04:38:26;15.70;99.90
23411;DHT22;11878;51.774;7.220;2023-07-31T04:41:46;15.70;99.90
23411;DHT22;11878;51.774;7.220;2023-07-31T04:45:09;15.70;99.90
23411;DHT22;11878;51.774;7.220;2023-07-31T04:48:11;15.70;99.90
23411;DHT22;11878;51.774;7.220;2023-07-31T04:51:16;15.70;99.90
23411;DHT22;11878;51.774;7.220;2023-07-31T04:54:32;15.70;99.90
23411;DHT22;11878;51.774;7.220;2023-07-31T04:57:33;15.80;99.90
23411;DHT22;11878;51.774;7.220;2023-07-31T05:00:35;15.80;99.90
23411;DHT22;11878;51.774;7.220;2023-07-31T05:03:37;15.80;99.90
23411;DHT22;11878;51.774;7.220;2023-07-31T05:06:49;15.70;99.90
23411;DHT22;11878;51.774;7.220;2023-07-31T05:09:56;15.90;99.90
23411;DHT22;11878;51.774;7.220;2023-07-31T05:13:05;15.90;99.90
23411;DHT22;11878;51.774;7.220;2023-07-31T05:16:10;15.90;99.90
23411;DHT22;11878;51.774;7.220;2023-07-31T05:19:12;16.30;99.90
23411;DHT22;11878;51.774;7.220;2023-07-31T05:22:14;16.20;99.90
23411;DHT22;11878;51.774;7.220;2023-07-31T05:25:16;16.10;99.90
23411;DHT22;11878;51.774;7.220;2023-07-31T05:28:21;16.10;99.90
23411;DHT22;11878;51.774;7.220;2023-07-31T05:31:24;16.10;99.90
23411;DHT22;11878;51.774;7.220;2023-07-31T05:34:26;16.30;99.90
23411;DHT22;11878;51.774;7.220;2023-07-31T05:37:28;16.20;99.90
23411;DHT22;11878;51.774;7.220;2023-07-31T05:40:33;16.20;99.90
23411;DHT22;11878;51.774;7.220;2023-07-31T05:43:38;16.20;99.90
23411;DHT22;11878;51.774;7.220;2023-07-31T05:46:51;16.10;99.90
23411;DHT22;11878;51.774;7.220;2023-07-31T05:49:52;16.20;99.90
23411;DHT22;11878;51.774;7.220;2023-07-31T05:52:55;16.20;99.90
23411;DHT22;11878;51.774;7.220;2023-07-31T05:55:57;16.30;99.90
23411;DHT22;11878;51.774;7.220;2023-07-31T05:59:03;16.30;99.90
23411;DHT22;11878;51.774;7.220;2023-07-31T06:02:05;16.30;99.90
23411;DHT22;11878;51.774;7.220;2023-07-31T06:05:08;16.40;99.90
23411;DHT22;11878;51.774;7.220;2023-07-31T06:08:12;16.70;99.90
23411;DHT22;11878;51.774;7.220;2023-07-31T06:11:14;16.70;99.90
23411;DHT22;11878;51.774;7.220;2023-07-31T06:14:18;16.40;99.90
23411;DHT22;11878;51.774;7.220;2023-07-31T06:17:24;16.40;99.90
23411;DHT22;11878;51.774;7.220;2023-07-31T06:20:28;16.40;99.90
23411;DHT22;11878;51.774;7.220;2023-07-31T06:23:30;16.40;99.90
23411;DHT22;11878;51.774;7.220;2023-07-31T06:26:32;16.40;99.90
23411;DHT22;11878;51.774;7.220;2023-07-31T06:29:34;16.40;99.90
23411;DHT22;11878;51.774;7.220;2023-07-31T06:32:36;16.40;99.90
23411;DHT22;11878;51.774;7.220;2023-07-31T06:35:38;16.30;99.90
23411;DHT22;11878;51.774;7.220;2023-07-31T06:38:40;16.30;99.90
23411;DHT22;11878;51.774;7.220;2023-07-31T06:41:43;16.30;99.90
23411;DHT22;11878;51.774;7.220;2023-07-31T06:44:45;16.20;99.90
23411;DHT22;11878;51.774;7.220;2023-07-31T06:47:47;16.20;99.90
23411;DHT22;11878;51.774;7.220;2023-07-31T06:50:49;16.20;99.90
23411;DHT22;11878;51.774;7.220;2023-07-31T06:53:51;16.20;99.90
23411;DHT22;11878;51.774;7.220;2023-07-31T06:56:53;16.10;99.90
23411;DHT22;11878;51.774;7.220;2023-07-31T06:59:55;16.10;99.90
23411;DHT22;11878;51.774;7.220;2023-07-31T07:02:57;16.50;99.90
23411;DHT22;11878;51.774;7.220;2023-07-31T07:05:59;16.10;99.90
23411;DHT22;11878;51.774;7.220;2023-07-31T07:09:02;16.00;99.90
23411;DHT22;11878;51.774;7.220;2023-07-31T07:12:05;16.10;99.90
23411;DHT22;11878;51.774;7.220;2023-07-31T07:15:08;16.10;99.90
23411;DHT22;11878;51.774;7.220;2023-07-31T07:18:11;16.10;99.90
23411;DHT22;11878;51.774;7.220;2023-07-31T07:21:13;16.10;99.90
23411;DHT22;11878;51.774;7.220;2023-07-31T07:24:20;16.00;99.90
23411;DHT22;11878;51.774;7.220;2023-07-31T07:27:23;16.20;99.90
23411;DHT22;11878;51.774;7.220;2023-07-31T07:30:25;16.10;99.90
23411;DHT22;11878;51.774;7.220;2023-07-31T07:33:26;16.20;99.90
23411;DHT22;11878;51.774;7.220;2023-07-31T07:36:29;16.10;99.90
23411;DHT22;11878;51.774;7.220;2023-07-31T07:39:31;16.20;99.90
23411;DHT22;11878;51.774;7.220;2023-07-31T07:42:33;16.10;99.90
23411;DHT22;11878;51.774;7.220;2023-07-31T07:45:35;16.20;99.90
23411;DHT22;11878;51.774;7.220;2023-07-31T07:48:37;16.30;99.90
23411;DHT22;11878;51.774;7.220;2023-07-31T07:51:39;16.20;99.90
23411;DHT22;11878;51.774;7.220;2023-07-31T07:54:41;16.50;99.90
23411;DHT22;11878;51.774;7.220;2023-07-31T07:57:44;16.60;99.90
23411;DHT22;11878;51.774;7.220;2023-07-31T08:00:53;16.40;99.90
23411;DHT22;11878;51.774;7.220;2023-07-31T08:03:57;16.20;99.90
23411;DHT22;11878;51.774;7.220;2023-07-31T08:07:01;16.20;99.90
23411;DHT22;11878;51.774;7.220;2023-07-31T08:10:04;16.20;99.90
23411;DHT22;11878;51.774;7.220;2023-07-31T08:13:06;16.20;99.90
23411;DHT22;11878;51.774;7.220;2023-07-31T08:16:08;16.30;99.90
23411;DHT22;11878;51.774;7.220;2023-07-31T08:19:13;16.40;99.90
23411;DHT22;11878;51.774;7.220;2023-07-31T08:22:18;16.30;99.90
23411;DHT22;11878;51.774;7.220;2023-07-31T08:25:20;16.20;99.90
23411;DHT22;11878;51.774;7.220;2023-07-31T08:28:23;16.10;99.90
23411;DHT22;11878;51.774;7.220;2023-07-31T08:31:25;16.20;99.90
23411;DHT22;11878;51.774;7.220;2023-07-31T08:34:27;16.10;99.90
23411;DHT22;11878;51.774;7.220;2023-07-31T08:37:29;16.20;99.90
23411;DHT22;11878;51.774;7.220;2023-07-31T08:40:36;16.20;99.90
23411;DHT22;11878;51.774;7.220;2023-07-31T08:43:40;16.20;99.90
23411;DHT22;11878;51.774;7.220;2023-07-31T08:46:44;16.10;99.90
23411;DHT22;11878;51.774;7.220;2023-07-31T08:49:47;16.10;99.90
23411;DHT22;11878;51.774;7.220;2023-07-31T08:52:51;16.10;99.90
23411;DHT22;11878;51.774;7.220;2023-07-31T08:55:54;16.10;99.90
23411;DHT22;11878;51.774;7.220;2023-07-31T08:58:58;16.10;99.90
23411;DHT22;11878;51.774;7.220;2023-07-31T09:02:08;16.10;99.90
23411;DHT22;11878;51.774;7.220;2023-07-31T09:05:11;16.10;99.90
23411;DHT22;11878;51.774;7.220;2023-07-31T09:08:19;16.20;99.90
23411;DHT22;11878;51.774;7.220;2023-07-31T09:11:21;16.20;99.90
23411;DHT22;11878;51.774;7.220;2023-07-31T09:14:26;16.20;99.90
23411;DHT22;11878;51.774;7.220;2023-07-31T09:17:33;16.20;99.90
23411;DHT22;11878;51.774;7.220;2023-07-31T09:20:36;16.20;99.90
23411;DHT22;11878;51.774;7.220;2023-07-31T09:23:46;16.20;99.90
23411;DHT22;11878;51.774;7.220;2023-07-31T09:26:54;16.20;99.90
23411;DHT22;11878;51.774;7.220;2023-07-31T09:30:00;16.20;99.90
23411;DHT22;11878;51.774;7.220;2023-07-31T09:33:04;16.30;99.90
23411;DHT22;11878;51.774;7.220;2023-07-31T09:36:09;16.20;99.90
23411;DHT22;11878;51.774;7.220;2023-07-31T09:39:15;16.10;99.90
23411;DHT22;11878;51.774;7.220;2023-07-31T09:42:25;16.20;99.90
23411;DHT22;11878;51.774;7.220;2023-07-31T09:45:28;16.20;99.90
23411;DHT22;11878;51.774;7.220;2023-07-31T09:48:42;16.20;99.90
23411;DHT22;11878;51.774;7.220;2023-07-31T09:51:44;16.30;99.90
23411;DHT22;11878;51.774;7.220;2023-07-31T09:54:49;16.30;99.90
23411;DHT22;11878;51.774;7.220;2023-07-31T09:57:52;16.20;99.90
23411;DHT22;11878;51.774;7.220;2023-07-31T10:00:57;16.20;99.90
23411;DHT22;11878;51.774;7.220;2023-07-31T10:04:01;16.40;99.90
23411;DHT22;11878;51.774;7.220;2023-07-31T10:07:05;16.30;99.90
23411;DHT22;11878;51.774;7.220;2023-07-31T10:10:08;16.30;99.90
23411;DHT22;11878;51.774;7.220;2023-07-31T10:13:13;16.30;99.90
23411;DHT22;11878;51.774;7.220;2023-07-31T10:16:16;16.60;99.90
23411;DHT22;11878;51.774;7.220;2023-07-31T10:19:20;16.40;99.90
23411;DHT22;11878;51.774;7.220;2023-07-31T10:22:23;16.50;99.90
23411;DHT22;11878;51.774;7.220;2023-07-31T10:25:26;16.50;99.90
23411;DHT22;11878;51.774;7.220;2023-07-31T10:28:32;16.60;99.90
23411;DHT22;11878;51.774;7.220;2023-07-31T10:31:38;16.40;99.90
23411;DHT22;11878;51.774;7.220;2023-07-31T10:34:48;16.50;99.90
23411;DHT22;11878;51.774;7.220;2023-07-31T10:37:51;16.50;99.90
23411;DHT22;11878;51.774;7.220;2023-07-31T10:41:08;16.60;99.90
23411;DHT22;11878;51.774;7.220;2023-07-31T10:44:13;16.80;99.90
23411;DHT22;11878;51.774;7.220;2023-07-31T10:47:15;16.60;99.90
23411;DHT22;11878;51.774;7.220;2023-07-31T10:50:24;16.60;99.90
23411;DHT22;11878;51.774;7.220;2023-07-31T10:53:30;16.70;99.90
23411;DHT22;11878;51.774;7.220;2023-07-31T10:56:37;16.60;99.90
23411;DHT22;11878;51.774;7.220;2023-07-31T10:59:41;16.70;99.90
23411;DHT22;11878;51.774;7.220;2023-07-31T11:03:05;16.60;99.90
23411;DHT22;11878;51.774;7.220;2023-07-31T11:06:09;16.60;99.90
23411;DHT22;11878;51.774;7.220;2023-07-31T11:09:13;16.70;99.90
23411;DHT22;11878;51.774;7.220;2023-07-31T11:12:15;16.60;99.90
23411;DHT22;11878;51.774;7.220;2023-07-31T11:15:19;16.60;99.90
23411;DHT22;11878;51.774;7.220;2023-07-31T11:18:22;16.90;99.90
23411;DHT22;11878;51.774;7.220;2023-07-31T11:21:25;16.60;99.90
23411;DHT22;11878;51.774;7.220;2023-07-31T11:24:28;16.60;99.90
23411;DHT22;11878;51.774;7.220;2023-07-31T11:27:30;16.70;99.90
23411;DHT22;11878;51.774;7.220;2023-07-31T11:30:33;16.70;99.90
23411;DHT22;11878;51.774;7.220;2023-07-31T11:33:35;17.00;99.90
23411;DHT22;11878;51.774;7.220;2023-07-31T11:36:37;16.80;99.90
23411;DHT22;11878;51.774;7.220;2023-07-31T11:39:43;16.80;99.90
23411;DHT22;11878;51.774;7.220;2023-07-31T11:43:04;17.00;99.90
23411;DHT22;11878;51.774;7.220;2023-07-31T11:46:09;17.10;99.90
23411;DHT22;11878;51.774;7.220;2023-07-31T11:49:15;17.30;99.90
23411;DHT22;11878;51.774;7.220;2023-07-31T11:52:19;17.50;99.90
23411;DHT22;11878;51.774;7.220;2023-07-31T11:55:25;17.60;99.90
23411;DHT22;11878;51.774;7.220;2023-07-31T11:58:30;17.60;99.90
23411;DHT22;11878;51.774;7.220;2023-07-31T12:01:33;17.50;99.90
23411;DHT22;11878;51.774;7.220;2023-07-31T12:04:35;17.60;99.90
23411;DHT22;11878;51.774;7.220;2023-07-31T12:07:49;17.60;99.90
23411;DHT22;11878;51.774;7.220;2023-07-31T12:10:54;17.70;99.90
23411;DHT22;11878;51.774;7.220;2023-07-31T12:13:57;17.70;99.90
23411;DHT22;11878;51.774;7.220;2023-07-31T12:17:00;17.70;99.90
23411;DHT22;11878;51.774;7.220;2023-07-31T12:20:04;17.80;99.90
23411;DHT22;11878;51.774;7.220;2023-07-31T12:23:07;17.80;99.90
23411;DHT22;11878;51.774;7.220;2023-07-31T12:26:14;17.80;99.90
23411;DHT22;11878;51.774;7.220;2023-07-31T12:29:16;17.80;99.90
23411;DHT22;11878;51.774;7.220;2023-07-31T12:32:24;17.80;99.90
23411;DHT22;11878;51.774;7.220;2023-07-31T12:35:34;18.00;99.90
23411;DHT22;11878;51.774;7.220;2023-07-31T12:38:37;18.00;99.90
23411;DHT22;11878;51.774;7.220;2023-07-31T12:41:39;17.90;99.90
23411;DHT22;11878;51.774;7.220;2023-07-31T12:44:41;17.90;99.90
23411;DHT22;11878;51.774;7.220;2023-07-31T12:47:42;17.90;99.90
23411;DHT22;11878;51.774;7.220;2023-07-31T12:50:44;17.90;99.90
23411;DHT22;11878;51.774;7.220;2023-07-31T12:53:47;18.20;99.90
23411;DHT22;11878;51.774;7.220;2023-07-31T12:56:49;18.20;99.90
23411;DHT22;11878;51.774;7.220;2023-07-31T12:59:51;18.10;99.90
23411;DHT22;11878;51.774;7.220;2023-07-31T13:02:53;18.10;99.90
23411;DHT22;11878;51.774;7.220;2023-07-31T13:05:55;18.00;99.90
23411;DHT22;11878;51.774;7.220;2023-07-31T13:08:57;18.00;99.90
23411;DHT22;11878;51.774;7.220;2023-07-31T13:11:59;17.90;99.90
23411;DHT22;11878;51.774;7.220;2023-07-31T13:15:07;18.00;99.90
23411;DHT22;11878;51.774;7.220;2023-07-31T13:18:11;18.40;99.90
23411;DHT22;11878;51.774;7.220;2023-07-31T13:21:13;18.00;99.90
23411;DHT22;11878;51.774;7.220;2023-07-31T13:24:18;18.00;99.90
23411;DHT22;11878;51.774;7.220;2023-07-31T13:27:21;18.00;99.90
23411;DHT22;11878;51.774;7.220;2023-07-31T13:30:23;18.00;99.90
23411;DHT22;11878;51.774;7.220;2023-07-31T13:33:26;17.90;99.90
23411;DHT22;11878;51.774;7.220;2023-07-31T13:36:42;17.90;99.90
23411;DHT22;11878;51.774;7.220;2023-07-31T13:39:44;17.90;99.90
23411;DHT22;11878;51.774;7.220;2023-07-31T13:42:46;18.00;99.90
23411;DHT22;11878;51.774;7.220;2023-07-31T13:45:49;18.10;99.90
23411;DHT22;11878;51.774;7.220;2023-07-31T13:48:51;18.20;99.90
23411;DHT22;11878;51.774;7.220;2023-07-31T13:51:58;18.20;99.90
23411;DHT22;11878;51.774;7.220;2023-07-31T13:55:00;18.20;99.90
23411;DHT22;11878;51.774;7.220;2023-07-31T13:58:02;18.10;99.90
23411;DHT22;11878;51.774;7.220;2023-07-31T14:01:07;18.10;99.90
23411;DHT22;11878;51.774;7.220;2023-07-31T14:04:11;18.10;99.90
23411;DHT22;11878;51.774;7.220;2023-07-31T14:07:16;18.10;99.90
23411;DHT22;11878;51.774;7.220;2023-07-31T14:10:19;18.10;99.90
23411;DHT22;11878;51.774;7.220;2023-07-31T14:13:21;18.20;99.90
23411;DHT22;11878;51.774;7.220;2023-07-31T14:16:23;18.20;99.90
23411;DHT22;11878;51.774;7.220;2023-07-31T14:19:25;18.20;99.90
23411;DHT22;11878;51.774;7.220;2023-07-31T14:22:31;18.30;99.90
23411;DHT22;11878;51.774;7.220;2023-07-31T14:25:35;18.30;99.90
23411;DHT22;11878;51.774;7.220;2023-07-31T14:28:38;18.40;99.90
23411;DHT22;11878;51.774;7.220;2023-07-31T14:32:07;18.40;99.90
23411;DHT22;11878;51.774;7.220;2023-07-31T14:35:09;18.40;99.90
23411;DHT22;11878;51.774;7.220;2023-07-31T14:38:11;18.40;99.90
23411;DHT22;11878;51.774;7.220;2023-07-31T14:41:17;18.40;99.90
23411;DHT22;11878;51.774;7.220;2023-07-31T14:44:21;18.50;99.90
23411;DHT22;11878;51.774;7.220;2023-07-31T14:47:24;18.50;99.90
23411;DHT22;11878;51.774;7.220;2023-07-31T14:50:29;18.80;99.90
23411;DHT22;11878;51.774;7.220;2023-07-31T14:53:31;18.50;99.90
23411;DHT22;11878;51.774;7.220;2023-07-31T14:56:34;18.50;99.90
23411;DHT22;11878;51.774;7.220;2023-07-31T14:59:38;18.50;99.90
23411;DHT22;11878;51.774;7.220;2023-07-31T15:02:41;18.50;99.90
23411;DHT22;11878;51.774;7.220;2023-07-31T15:05:44;18.50;99.90
23411;DHT22;11878;51.774;7.220;2023-07-31T15:08:50;18.50;99.90
23411;DHT22;11878;51.774;7.220;2023-07-31T15:11:52;18.50;99.90
23411;DHT22;11878;51.774;7.220;2023-07-31T15:14:55;18.50;99.90
23411;DHT22;11878;51.774;7.220;2023-07-31T15:17:58;18.40;99.90
23411;DHT22;11878;51.774;7.220;2023-07-31T15:21:06;18.50;99.90
23411;DHT22;11878;51.774;7.220;2023-07-31T15:24:10;18.40;99.90
23411;DHT22;11878;51.774;7.220;2023-07-31T15:27:19;18.40;99.90
23411;DHT22;11878;51.774;7.220;2023-07-31T15:30:53;18.40;99.90
23411;DHT22;11878;51.774;7.220;2023-07-31T15:33:55;18.10;99.90
23411;DHT22;11878;51.774;7.220;2023-07-31T15:37:00;18.30;99.90
23411;DHT22;11878;51.774;7.220;2023-07-31T15:40:02;18.10;99.90
23411;DHT22;11878;51.774;7.220;2023-07-31T15:43:08;17.80;99.90
23411;DHT22;11878;51.774;7.220;2023-07-31T15:46:14;17.70;99.90
23411;DHT22;11878;51.774;7.220;2023-07-31T15:49:21;17.60;99.90
23411;DHT22;11878;51.774;7.220;2023-07-31T15:52:36;17.50;99.90
23411;DHT22;11878;51.774;7.220;2023-07-31T15:55:44;17.50;99.90
23411;DHT22;11878;51.774;7.220;2023-07-31T15:58:49;17.50;99.90
23411;DHT22;11878;51.774;7.220;2023-07-31T16:01:52;17.40;99.90
23411;DHT22;11878;51.774;7.220;2023-07-31T16:04:56;17.40;99.90
23411;DHT22;11878;51.774;7.220;2023-07-31T16:08:01;17.40;99.90
23411;DHT22;11878;51.774;7.220;2023-07-31T16:11:18;17.40;99.90
23411;DHT22;11878;51.774;7.220;2023-07-31T16:14:48;17.40;99.90
23411;DHT22;11878;51.774;7.220;2023-07-31T16:17:58;17.40;99.90
23411;DHT22;11878;51.774;7.220;2023-07-31T16:21:02;17.30;99.90
23411;DHT22;11878;51.774;7.220;2023-07-31T16:24:16;17.30;99.90
23411;DHT22;11878;51.774;7.220;2023-07-31T16:27:29;17.30;99.90
23411;DHT22;11878;51.774;7.220;2023-07-31T16:30:41;16.80;99.90
23411;DHT22;11878;51.774;7.220;2023-07-31T16:33:48;17.30;99.90
23411;DHT22;11878;51.774;7.220;2023-07-31T16:36:53;17.30;99.90
23411;DHT22;11878;51.774;7.220;2023-07-31T16:40:04;17.30;99.90
23411;DHT22;11878;51.774;7.220;2023-07-31T16:43:12;17.30;99.90
23411;DHT22;11878;51.774;7.220;2023-07-31T16:46:20;17.40;99.90
23411;DHT22;11878;51.774;7.220;2023-07-31T16:49:36;17.20;99.90
23411;DHT22;11878;51.774;7.220;2023-07-31T16:52:49;17.30;99.90
23411;DHT22;11878;51.774;7.220;2023-07-31T16:56:18;17.20;99.90
23411;DHT22;11878;51.774;7.220;2023-07-31T16:59:40;17.30;99.90
23411;DHT22;11878;51.774;7.220;2023-07-31T17:02:48;17.20;99.90
23411;DHT22;11878;51.774;7.220;2023-07-31T17:06:07;17.20;99.90
23411;DHT22;11878;51.774;7.220;2023-07-31T17:09:25;17.20;99.90
23411;DHT22;11878;51.774;7.220;2023-07-31T17:12:35;17.70;99.90
23411;DHT22;11878;51.774;7.220;2023-07-31T17:15:50;17.20;99.90
23411;DHT22;11878;51.774;7.220;2023-07-31T17:19:03;17.20;99.90
23411;DHT22;11878;51.774;7.220;2023-07-31T17:22:29;17.10;99.90
23411;DHT22;11878;51.774;7.220;2023-07-31T17:25:55;17.10;99.90
23411;DHT22;11878;51.774;7.220;2023-07-31T17:29:40;16.90;99.90
23411;DHT22;11878;51.774;7.220;2023-07-31T17:32:45;17.10;99.90
23411;DHT22;11878;51.774;7.220;2023-07-31T17:36:02;17.10;99.90
23411;DHT22;11878;51.774;7.220;2023-07-31T17:39:56;17.10;99.90
23411;DHT22;11878;51.774;7.220;2023-07-31T17:43:31;17.00;99.90
23411;DHT22;11878;51.774;7.220;2023-07-31T17:46:57;17.00;99.90
23411;DHT22;11878;51.774;7.220;2023-07-31T17:50:31;17.10;99.90
23411;DHT22;11878;51.774;7.220;2023-07-31T17:54:02;17.00;99.90
23411;DHT22;11878;51.774;7.220;2023-07-31T17:57:15;16.90;99.90
23411;DHT22;11878;51.774;7.220;2023-07-31T18:00:25;17.00;99.90
23411;DHT22;11878;51.774;7.220;2023-07-31T18:03:40;16.90;99.90
23411;DHT22;11878;51.774;7.220;2023-07-31T18:07:09;16.80;99.90
23411;DHT22;11878;51.774;7.220;2023-07-31T18:10:28;17.00;99.90
23411;DHT22;11878;51.774;7.220;2023-07-31T18:13:44;16.80;99.90
23411;DHT22;11878;51.774;7.220;2023-07-31T18:17:32;16.80;99.90
23411;DHT22;11878;51.774;7.220;2023-07-31T18:21:02;16.80;99.90
23411;DHT22;11878;51.774;7.220;2023-07-31T18:24:50;17.00;99.90
23411;DHT22;11878;51.774;7.220;2023-07-31T18:28:25;16.70;99.90
23411;DHT22;11878;51.774;7.220;2023-07-31T18:31:54;16.80;99.90
23411;DHT22;11878;51.774;7.220;2023-07-31T18:35:12;16.70;99.90
23411;DHT22;11878;51.774;7.220;2023-07-31T18:38:53;16.60;99.90
23411;DHT22;11878;51.774;7.220;2023-07-31T18:42:32;16.10;99.90
23411;DHT22;11878;51.774;7.220;2023-07-31T18:45:43;16.70;99.90
23411;DHT22;11878;51.774;7.220;2023-07-31T18:49:19;16.40;99.90
23411;DHT22;11878;51.774;7.220;2023-07-31T18:52:37;16.60;99.90
23411;DHT22;11878;51.774;7.220;2023-07-31T18:56:07;16.60;99.90
23411;DHT22;11878;51.774;7.220;2023-07-31T18:59:39;16.50;99.90
23411;DHT22;11878;51.774;7.220;2023-07-31T19:02:50;16.60;99.90
23411;DHT22;11878;51.774;7.220;2023-07-31T19:06:16;16.50;99.90
23411;DHT22;11878;51.774;7.220;2023-07-31T19:09:45;16.60;99.90
23411;DHT22;11878;51.774;7.220;2023-07-31T19:13:46;16.50;99.90
23411;DHT22;11878;51.774;7.220;2023-07-31T19:16:53;16.60;99.90
23411;DHT22;11878;51.774;7.220;2023-07-31T19:20:05;16.60;99.90
23411;DHT22;11878;51.774;7.220;2023-07-31T19:23:24;16.50;99.90
23411;DHT22;11878;51.774;7.220;2023-07-31T19:30:13;16.60;99.90
23411;DHT22;11878;51.774;7.220;2023-07-31T19:33:15;16.50;99.90
23411;DHT22;11878;51.774;7.220;2023-07-31T19:36:17;16.70;99.90
23411;DHT22;11878;51.774;7.220;2023-07-31T19:39:19;16.70;99.90
23411;DHT22;11878;51.774;7.220;2023-07-31T19:42:21;16.60;99.90
23411;DHT22;11878;51.774;7.220;2023-07-31T19:45:23;16.60;99.90
23411;DHT22;11878;51.774;7.220;2023-07-31T19:48:25;16.60;99.90
23411;DHT22;11878;51.774;7.220;2023-07-31T19:51:26;16.60;99.90
23411;DHT22;11878;51.774;7.220;2023-07-31T19:54:28;16.60;99.90
23411;DHT22;11878;51.774;7.220;2023-07-31T19:57:30;16.60;99.90
23411;DHT22;11878;51.774;7.220;2023-07-31T20:00:33;16.70;99.90